sensor_id;sensor_type;location;lat;lon;timestamp;P1;durP1;ratioP1;P2;durP2;ratioP2
55455;SDS011;63021;52.836;6.376;2023-01-26T00:01:42;48.05;;;18.80;;
55455;SDS011;63021;52.836;6.376;2023-01-26T00:04:08;50.63;;;20.42;;
55455;SDS011;63021;52.836;6.376;2023-01-26T00:06:34;44.53;;;18.88;;
55455;SDS011;63021;52.836;6.376;2023-01-26T00:08:59;39.38;;;16.77;;
55455;SDS011;63021;52.836;6.376;2023-01-26T00:11:26;42.30;;;18.00;;
55455;SDS011;63021;52.836;6.376;2023-01-26T00:13:53;44.70;;;17.60;;
55455;SDS011;63021;52.836;6.376;2023-01-26T00:16:19;41.78;;;18.50;;
55455;SDS011;63021;52.836;6.376;2023-01-26T00:18:45;50.60;;;18.50;;
55455;SDS011;63021;52.836;6.376;2023-01-26T00:21:11;43.05;;;20.48;;
55455;SDS011;63021;52.836;6.376;2023-01-26T00:23:38;44.65;;;19.17;;
55455;SDS011;63021;52.836;6.376;2023-01-26T00:26:08;44.80;;;20.70;;
55455;SDS011;63021;52.836;6.376;2023-01-26T00:28:35;47.83;;;18.92;;
55455;SDS011;63021;52.836;6.376;2023-01-26T00:31:01;45.10;;;19.02;;
55455;SDS011;63021;52.836;6.376;2023-01-26T00:33:27;50.42;;;19.88;;
55455;SDS011;63021;52.836;6.376;2023-01-26T00:35:53;46.47;;;20.70;;
55455;SDS011;63021;52.836;6.376;2023-01-26T00:38:19;46.50;;;18.33;;
55455;SDS011;63021;52.836;6.376;2023-01-26T00:40:44;49.35;;;19.67;;
55455;SDS011;63021;52.836;6.376;2023-01-26T00:43:09;49.60;;;20.20;;
55455;SDS011;63021;52.836;6.376;2023-01-26T00:45:35;49.03;;;20.42;;
55455;SDS011;63021;52.836;6.376;2023-01-26T00:48:00;40.33;;;18.80;;
55455;SDS011;63021;52.836;6.376;2023-01-26T00:50:26;46.97;;;18.80;;
55455;SDS011;63021;52.836;6.376;2023-01-26T00:52:51;48.85;;;19.55;;
55455;SDS011;63021;52.836;6.376;2023-01-26T00:55:17;48.40;;;19.05;;
55455;SDS011;63021;52.836;6.376;2023-01-26T00:57:43;49.35;;;18.80;;
55455;SDS011;63021;52.836;6.376;2023-01-26T01:00:09;49.33;;;20.45;;
55455;SDS011;63021;52.836;6.376;2023-01-26T01:02:37;50.97;;;19.75;;
55455;SDS011;63021;52.836;6.376;2023-01-26T01:05:03;42.85;;;16.45;;
55455;SDS011;63021;52.836;6.376;2023-01-26T01:07:28;44.33;;;18.75;;
55455;SDS011;63021;52.836;6.376;2023-01-26T01:09:54;45.95;;;18.23;;
55455;SDS011;63021;52.836;6.376;2023-01-26T01:12:19;46.03;;;18.55;;
55455;SDS011;63021;52.836;6.376;2023-01-26T01:14:44;43.90;;;18.30;;
55455;SDS011;63021;52.836;6.376;2023-01-26T01:17:10;41.08;;;18.55;;
55455;SDS011;63021;52.836;6.376;2023-01-26T01:19:35;43.28;;;19.88;;
55455;SDS011;63021;52.836;6.376;2023-01-26T01:22:02;51.28;;;18.23;;
55455;SDS011;63021;52.836;6.376;2023-01-26T01:24:28;47.17;;;17.48;;
55455;SDS011;63021;52.836;6.376;2023-01-26T01:26:53;47.85;;;19.17;;
55455;SDS011;63021;52.836;6.376;2023-01-26T01:29:18;42.47;;;17.23;;
55455;SDS011;63021;52.836;6.376;2023-01-26T01:31:44;41.45;;;18.95;;
55455;SDS011;63021;52.836;6.376;2023-01-26T01:34:09;35.50;;;16.08;;
55455;SDS011;63021;52.836;6.376;2023-01-26T01:36:34;39.42;;;16.63;;
55455;SDS011;63021;52.836;6.376;2023-01-26T01:39:00;43.22;;;18.08;;
55455;SDS011;63021;52.836;6.376;2023-01-26T01:41:25;39.55;;;17.08;;
55455;SDS011;63021;52.836;6.376;2023-01-26T01:44:09;34.92;;;16.50;;
55455;SDS011;63021;52.836;6.376;2023-01-26T01:46:37;37.83;;;15.98;;
55455;SDS011;63021;52.836;6.376;2023-01-26T01:49:05;41.53;;;17.52;;
55455;SDS011;63021;52.836;6.376;2023-01-26T01:51:41;44.35;;;18.58;;
55455;SDS011;63021;52.836;6.376;2023-01-26T01:54:12;44.08;;;15.57;;
55455;SDS011;63021;52.836;6.376;2023-01-26T01:56:41;44.10;;;17.55;;
55455;SDS011;63021;52.836;6.376;2023-01-26T01:59:10;43.88;;;16.77;;
55455;SDS011;63021;52.836;6.376;2023-01-26T02:01:37;41.33;;;16.50;;
55455;SDS011;63021;52.836;6.376;2023-01-26T02:04:03;38.85;;;15.65;;
55455;SDS011;63021;52.836;6.376;2023-01-26T02:06:35;36.38;;;17.02;;
55455;SDS011;63021;52.836;6.376;2023-01-26T02:09:13;39.97;;;17.67;;
55455;SDS011;63021;52.836;6.376;2023-01-26T02:12:03;43.60;;;18.58;;
55455;SDS011;63021;52.836;6.376;2023-01-26T02:14:32;38.33;;;16.15;;
55455;SDS011;63021;52.836;6.376;2023-01-26T02:16:58;37.03;;;15.95;;
55455;SDS011;63021;52.836;6.376;2023-01-26T02:19:32;43.50;;;18.65;;
55455;SDS011;63021;52.836;6.376;2023-01-26T02:22:22;41.22;;;16.38;;
55455;SDS011;63021;52.836;6.376;2023-01-26T02:24:51;37.15;;;17.13;;
55455;SDS011;63021;52.836;6.376;2023-01-26T02:27:19;43.22;;;18.42;;
55455;SDS011;63021;52.836;6.376;2023-01-26T02:29:45;41.83;;;16.98;;
55455;SDS011;63021;52.836;6.376;2023-01-26T02:32:10;40.88;;;17.50;;
55455;SDS011;63021;52.836;6.376;2023-01-26T02:34:36;43.05;;;16.13;;
55455;SDS011;63021;52.836;6.376;2023-01-26T02:37:01;33.08;;;13.98;;
55455;SDS011;63021;52.836;6.376;2023-01-26T02:42:04;33.65;;;13.32;;
55455;SDS011;63021;52.836;6.376;2023-01-26T02:44:48;33.80;;;14.25;;
55455;SDS011;63021;52.836;6.376;2023-01-26T02:47:15;36.05;;;14.23;;
55455;SDS011;63021;52.836;6.376;2023-01-26T02:49:43;38.55;;;14.68;;
55455;SDS011;63021;52.836;6.376;2023-01-26T02:52:11;33.65;;;13.90;;
55455;SDS011;63021;52.836;6.376;2023-01-26T02:54:37;35.20;;;14.77;;
55455;SDS011;63021;52.836;6.376;2023-01-26T02:57:21;32.80;;;13.48;;
55455;SDS011;63021;52.836;6.376;2023-01-26T02:59:47;32.15;;;14.93;;
55455;SDS011;63021;52.836;6.376;2023-01-26T03:02:15;32.53;;;13.45;;
55455;SDS011;63021;52.836;6.376;2023-01-26T03:04:41;32.45;;;13.65;;
55455;SDS011;63021;52.836;6.376;2023-01-26T03:07:07;36.47;;;15.27;;
55455;SDS011;63021;52.836;6.376;2023-01-26T03:09:33;36.85;;;14.65;;
55455;SDS011;63021;52.836;6.376;2023-01-26T03:11:58;30.25;;;13.88;;
55455;SDS011;63021;52.836;6.376;2023-01-26T03:14:23;34.13;;;15.23;;
55455;SDS011;63021;52.836;6.376;2023-01-26T03:16:49;36.70;;;14.77;;
55455;SDS011;63021;52.836;6.376;2023-01-26T03:19:14;34.28;;;13.38;;
55455;SDS011;63021;52.836;6.376;2023-01-26T03:21:59;32.10;;;13.82;;
55455;SDS011;63021;52.836;6.376;2023-01-26T03:24:43;36.30;;;13.90;;
55455;SDS011;63021;52.836;6.376;2023-01-26T03:27:37;37.50;;;13.25;;
55455;SDS011;63021;52.836;6.376;2023-01-26T03:30:05;42.50;;;14.90;;
55455;SDS011;63021;52.836;6.376;2023-01-26T03:32:31;38.40;;;16.75;;
55455;SDS011;63021;52.836;6.376;2023-01-26T03:34:57;31.83;;;13.68;;
55455;SDS011;63021;52.836;6.376;2023-01-26T03:37:22;33.65;;;15.88;;
55455;SDS011;63021;52.836;6.376;2023-01-26T03:39:48;31.10;;;13.48;;
55455;SDS011;63021;52.836;6.376;2023-01-26T03:42:33;33.97;;;14.70;;
55455;SDS011;63021;52.836;6.376;2023-01-26T03:45:18;31.08;;;14.00;;
55455;SDS011;63021;52.836;6.376;2023-01-26T03:48:03;33.88;;;14.30;;
55455;SDS011;63021;52.836;6.376;2023-01-26T03:50:47;30.38;;;12.93;;
55455;SDS011;63021;52.836;6.376;2023-01-26T03:53:31;32.55;;;13.88;;
55455;SDS011;63021;52.836;6.376;2023-01-26T03:56:15;31.52;;;13.70;;
55455;SDS011;63021;52.836;6.376;2023-01-26T03:58:50;29.85;;;12.75;;
55455;SDS011;63021;52.836;6.376;2023-01-26T04:01:17;28.88;;;11.88;;
55455;SDS011;63021;52.836;6.376;2023-01-26T04:03:49;28.75;;;12.52;;
55455;SDS011;63021;52.836;6.376;2023-01-26T04:06:33;32.15;;;12.90;;
55455;SDS011;63021;52.836;6.376;2023-01-26T04:09:19;35.42;;;14.10;;
55455;SDS011;63021;52.836;6.376;2023-01-26T04:11:45;31.52;;;13.30;;
55455;SDS011;63021;52.836;6.376;2023-01-26T04:14:12;33.38;;;13.45;;
55455;SDS011;63021;52.836;6.376;2023-01-26T04:16:57;30.88;;;12.57;;
55455;SDS011;63021;52.836;6.376;2023-01-26T04:19:42;29.95;;;12.55;;
55455;SDS011;63021;52.836;6.376;2023-01-26T04:22:26;31.23;;;12.32;;
55455;SDS011;63021;52.836;6.376;2023-01-26T04:24:52;32.78;;;13.68;;
55455;SDS011;63021;52.836;6.376;2023-01-26T04:27:17;30.35;;;13.57;;
55455;SDS011;63021;52.836;6.376;2023-01-26T04:29:43;30.17;;;13.85;;
55455;SDS011;63021;52.836;6.376;2023-01-26T04:32:08;34.90;;;13.95;;
55455;SDS011;63021;52.836;6.376;2023-01-26T04:34:34;34.13;;;12.90;;
55455;SDS011;63021;52.836;6.376;2023-01-26T04:36:59;35.72;;;13.43;;
55455;SDS011;63021;52.836;6.376;2023-01-26T04:39:24;30.73;;;12.95;;
55455;SDS011;63021;52.836;6.376;2023-01-26T04:41:50;33.17;;;14.18;;
55455;SDS011;63021;52.836;6.376;2023-01-26T04:44:15;33.88;;;14.30;;
55455;SDS011;63021;52.836;6.376;2023-01-26T04:46:41;26.27;;;11.48;;
55455;SDS011;63021;52.836;6.376;2023-01-26T04:49:06;29.98;;;12.25;;
55455;SDS011;63021;52.836;6.376;2023-01-26T04:51:33;29.85;;;14.23;;
55455;SDS011;63021;52.836;6.376;2023-01-26T04:53:58;32.97;;;14.35;;
55455;SDS011;63021;52.836;6.376;2023-01-26T04:56:28;33.92;;;15.00;;
55455;SDS011;63021;52.836;6.376;2023-01-26T04:58:58;32.70;;;14.38;;
55455;SDS011;63021;52.836;6.376;2023-01-26T05:01:25;32.55;;;14.02;;
55455;SDS011;63021;52.836;6.376;2023-01-26T05:03:50;32.90;;;14.25;;
55455;SDS011;63021;52.836;6.376;2023-01-26T05:06:16;32.60;;;14.00;;
55455;SDS011;63021;52.836;6.376;2023-01-26T05:08:42;31.98;;;14.98;;
55455;SDS011;63021;52.836;6.376;2023-01-26T05:11:07;24.65;;;11.82;;
55455;SDS011;63021;52.836;6.376;2023-01-26T05:13:33;30.08;;;13.73;;
55455;SDS011;63021;52.836;6.376;2023-01-26T05:16:00;29.35;;;14.02;;
55455;SDS011;63021;52.836;6.376;2023-01-26T05:18:26;30.52;;;14.02;;
55455;SDS011;63021;52.836;6.376;2023-01-26T05:20:52;29.80;;;13.68;;
55455;SDS011;63021;52.836;6.376;2023-01-26T05:23:18;29.15;;;14.35;;
55455;SDS011;63021;52.836;6.376;2023-01-26T05:25:43;34.03;;;13.70;;
55455;SDS011;63021;52.836;6.376;2023-01-26T05:28:08;38.40;;;16.00;;
55455;SDS011;63021;52.836;6.376;2023-01-26T05:30:34;26.70;;;13.70;;
55455;SDS011;63021;52.836;6.376;2023-01-26T05:33:00;27.50;;;13.25;;
55455;SDS011;63021;52.836;6.376;2023-01-26T05:35:26;33.30;;;15.50;;
55455;SDS011;63021;52.836;6.376;2023-01-26T05:37:51;32.85;;;14.25;;
55455;SDS011;63021;52.836;6.376;2023-01-26T05:40:17;30.10;;;13.68;;
55455;SDS011;63021;52.836;6.376;2023-01-26T05:42:42;32.15;;;14.13;;
55455;SDS011;63021;52.836;6.376;2023-01-26T05:45:08;31.67;;;14.57;;
55455;SDS011;63021;52.836;6.376;2023-01-26T05:47:35;38.10;;;16.15;;
55455;SDS011;63021;52.836;6.376;2023-01-26T05:50:00;36.30;;;15.23;;
55455;SDS011;63021;52.836;6.376;2023-01-26T05:52:25;32.70;;;14.68;;
55455;SDS011;63021;52.836;6.376;2023-01-26T05:54:51;37.30;;;15.05;;
55455;SDS011;63021;52.836;6.376;2023-01-26T05:57:17;35.45;;;15.07;;
55455;SDS011;63021;52.836;6.376;2023-01-26T05:59:42;36.65;;;15.05;;
55455;SDS011;63021;52.836;6.376;2023-01-26T06:02:08;43.22;;;14.88;;
55455;SDS011;63021;52.836;6.376;2023-01-26T06:04:35;37.22;;;15.23;;
55455;SDS011;63021;52.836;6.376;2023-01-26T06:07:01;34.92;;;16.17;;
55455;SDS011;63021;52.836;6.376;2023-01-26T06:09:26;35.15;;;16.30;;
55455;SDS011;63021;52.836;6.376;2023-01-26T06:11:51;42.92;;;15.98;;
55455;SDS011;63021;52.836;6.376;2023-01-26T06:14:17;40.60;;;17.33;;
55455;SDS011;63021;52.836;6.376;2023-01-26T06:16:42;39.65;;;15.70;;
55455;SDS011;63021;52.836;6.376;2023-01-26T06:19:08;37.80;;;15.75;;
55455;SDS011;63021;52.836;6.376;2023-01-26T06:21:35;37.08;;;16.27;;
55455;SDS011;63021;52.836;6.376;2023-01-26T06:24:01;38.90;;;15.77;;
55455;SDS011;63021;52.836;6.376;2023-01-26T06:26:27;38.92;;;15.05;;
55455;SDS011;63021;52.836;6.376;2023-01-26T06:28:52;45.30;;;19.05;;
55455;SDS011;63021;52.836;6.376;2023-01-26T06:31:18;39.25;;;15.85;;
55455;SDS011;63021;52.836;6.376;2023-01-26T06:33:45;44.20;;;18.23;;
55455;SDS011;63021;52.836;6.376;2023-01-26T06:36:12;44.65;;;16.13;;
55455;SDS011;63021;52.836;6.376;2023-01-26T06:38:43;42.15;;;17.42;;
55455;SDS011;63021;52.836;6.376;2023-01-26T06:41:10;39.15;;;16.27;;
55455;SDS011;63021;52.836;6.376;2023-01-26T06:43:35;40.25;;;15.85;;
55455;SDS011;63021;52.836;6.376;2023-01-26T06:46:01;41.92;;;16.90;;
55455;SDS011;63021;52.836;6.376;2023-01-26T06:48:28;41.20;;;16.45;;
55455;SDS011;63021;52.836;6.376;2023-01-26T06:50:56;39.80;;;17.83;;
55455;SDS011;63021;52.836;6.376;2023-01-26T06:53:36;50.75;;;17.75;;
55455;SDS011;63021;52.836;6.376;2023-01-26T06:56:02;47.50;;;19.10;;
55455;SDS011;63021;52.836;6.376;2023-01-26T06:58:28;40.70;;;18.08;;
55455;SDS011;63021;52.836;6.376;2023-01-26T07:00:53;46.85;;;18.52;;
55455;SDS011;63021;52.836;6.376;2023-01-26T07:03:19;41.78;;;17.38;;
55455;SDS011;63021;52.836;6.376;2023-01-26T07:05:45;46.47;;;19.15;;
55455;SDS011;63021;52.836;6.376;2023-01-26T07:08:10;52.17;;;18.02;;
55455;SDS011;63021;52.836;6.376;2023-01-26T07:10:36;45.92;;;16.42;;
55455;SDS011;63021;52.836;6.376;2023-01-26T07:13:02;34.03;;;17.17;;
55455;SDS011;63021;52.836;6.376;2023-01-26T07:15:29;49.90;;;18.60;;
55455;SDS011;63021;52.836;6.376;2023-01-26T07:17:58;43.53;;;18.60;;
55455;SDS011;63021;52.836;6.376;2023-01-26T07:20:24;48.10;;;18.77;;
55455;SDS011;63021;52.836;6.376;2023-01-26T07:22:50;52.03;;;20.38;;
55455;SDS011;63021;52.836;6.376;2023-01-26T07:25:16;44.80;;;18.52;;
55455;SDS011;63021;52.836;6.376;2023-01-26T07:27:42;39.42;;;17.13;;
55455;SDS011;63021;52.836;6.376;2023-01-26T07:30:08;54.08;;;20.25;;
55455;SDS011;63021;52.836;6.376;2023-01-26T07:32:36;51.00;;;20.17;;
55455;SDS011;63021;52.836;6.376;2023-01-26T07:35:01;52.60;;;19.90;;
55455;SDS011;63021;52.836;6.376;2023-01-26T07:37:27;54.72;;;20.48;;
55455;SDS011;63021;52.836;6.376;2023-01-26T07:39:53;57.95;;;20.50;;
55455;SDS011;63021;52.836;6.376;2023-01-26T07:42:18;54.67;;;18.58;;
55455;SDS011;63021;52.836;6.376;2023-01-26T07:44:44;53.05;;;19.20;;
55455;SDS011;63021;52.836;6.376;2023-01-26T07:47:09;43.95;;;16.90;;
55455;SDS011;63021;52.836;6.376;2023-01-26T07:49:35;57.35;;;18.83;;
55455;SDS011;63021;52.836;6.376;2023-01-26T07:52:00;54.63;;;18.20;;
55455;SDS011;63021;52.836;6.376;2023-01-26T07:54:25;55.28;;;18.33;;
55455;SDS011;63021;52.836;6.376;2023-01-26T07:56:51;58.97;;;18.80;;
55455;SDS011;63021;52.836;6.376;2023-01-26T07:59:18;63.75;;;19.45;;
55455;SDS011;63021;52.836;6.376;2023-01-26T08:01:44;58.53;;;19.83;;
55455;SDS011;63021;52.836;6.376;2023-01-26T08:04:10;65.50;;;18.02;;
55455;SDS011;63021;52.836;6.376;2023-01-26T08:06:36;46.95;;;17.90;;
55455;SDS011;63021;52.836;6.376;2023-01-26T08:09:02;52.67;;;18.48;;
55455;SDS011;63021;52.836;6.376;2023-01-26T08:11:27;48.17;;;17.63;;
55455;SDS011;63021;52.836;6.376;2023-01-26T08:13:53;49.80;;;19.58;;
55455;SDS011;63021;52.836;6.376;2023-01-26T08:16:19;44.60;;;17.52;;
55455;SDS011;63021;52.836;6.376;2023-01-26T08:18:45;52.72;;;16.90;;
55455;SDS011;63021;52.836;6.376;2023-01-26T08:21:11;51.45;;;16.23;;
55455;SDS011;63021;52.836;6.376;2023-01-26T08:23:38;39.92;;;14.25;;
55455;SDS011;63021;52.836;6.376;2023-01-26T08:26:04;43.78;;;17.00;;
55455;SDS011;63021;52.836;6.376;2023-01-26T08:28:31;45.97;;;19.27;;
55455;SDS011;63021;52.836;6.376;2023-01-26T08:31:04;56.47;;;20.23;;
55455;SDS011;63021;52.836;6.376;2023-01-26T08:33:32;54.22;;;20.35;;
55455;SDS011;63021;52.836;6.376;2023-01-26T08:36:01;48.90;;;17.60;;
55455;SDS011;63021;52.836;6.376;2023-01-26T08:38:29;39.97;;;17.10;;
55455;SDS011;63021;52.836;6.376;2023-01-26T08:40:56;42.72;;;16.02;;
55455;SDS011;63021;52.836;6.376;2023-01-26T08:43:21;38.00;;;16.02;;
55455;SDS011;63021;52.836;6.376;2023-01-26T08:45:47;37.92;;;13.80;;
55455;SDS011;63021;52.836;6.376;2023-01-26T08:48:12;44.30;;;12.13;;
55455;SDS011;63021;52.836;6.376;2023-01-26T08:50:38;42.95;;;11.63;;
55455;SDS011;63021;52.836;6.376;2023-01-26T08:53:03;29.38;;;11.38;;
55455;SDS011;63021;52.836;6.376;2023-01-26T08:55:28;44.53;;;14.02;;
55455;SDS011;63021;52.836;6.376;2023-01-26T08:57:54;58.25;;;17.95;;
55455;SDS011;63021;52.836;6.376;2023-01-26T09:00:20;55.78;;;19.73;;
55455;SDS011;63021;52.836;6.376;2023-01-26T09:02:46;53.28;;;18.05;;
55455;SDS011;63021;52.836;6.376;2023-01-26T09:05:13;45.58;;;16.00;;
55455;SDS011;63021;52.836;6.376;2023-01-26T09:07:38;61.88;;;19.40;;
55455;SDS011;63021;52.836;6.376;2023-01-26T09:10:04;42.35;;;14.57;;
55455;SDS011;63021;52.836;6.376;2023-01-26T09:12:30;48.65;;;15.93;;
55455;SDS011;63021;52.836;6.376;2023-01-26T09:14:55;38.42;;;13.70;;
55455;SDS011;63021;52.836;6.376;2023-01-26T09:17:21;45.22;;;15.05;;
55455;SDS011;63021;52.836;6.376;2023-01-26T09:19:46;42.58;;;12.88;;
55455;SDS011;63021;52.836;6.376;2023-01-26T09:22:11;36.88;;;12.10;;
55455;SDS011;63021;52.836;6.376;2023-01-26T09:24:37;32.60;;;9.80;;
55455;SDS011;63021;52.836;6.376;2023-01-26T09:27:04;31.67;;;8.75;;
55455;SDS011;63021;52.836;6.376;2023-01-26T09:29:30;35.08;;;10.35;;
55455;SDS011;63021;52.836;6.376;2023-01-26T09:31:56;34.58;;;9.25;;
55455;SDS011;63021;52.836;6.376;2023-01-26T09:34:21;39.50;;;10.32;;
55455;SDS011;63021;52.836;6.376;2023-01-26T09:36:49;37.70;;;9.57;;
55455;SDS011;63021;52.836;6.376;2023-01-26T09:39:14;29.40;;;9.30;;
55455;SDS011;63021;52.836;6.376;2023-01-26T09:41:48;53.78;;;13.23;;
55455;SDS011;63021;52.836;6.376;2023-01-26T09:44:27;37.97;;;9.70;;
55455;SDS011;63021;52.836;6.376;2023-01-26T09:57:16;48.80;;;10.75;;
55455;SDS011;63021;52.836;6.376;2023-01-26T09:59:47;34.33;;;8.05;;
55455;SDS011;63021;52.836;6.376;2023-01-26T10:05:01;40.15;;;12.75;;
55455;SDS011;63021;52.836;6.376;2023-01-26T10:07:35;30.05;;;8.32;;
55455;SDS011;63021;52.836;6.376;2023-01-26T10:10:01;33.92;;;7.80;;
55455;SDS011;63021;52.836;6.376;2023-01-26T10:12:30;45.08;;;9.50;;
55455;SDS011;63021;52.836;6.376;2023-01-26T10:17:25;41.78;;;7.60;;
55455;SDS011;63021;52.836;6.376;2023-01-26T10:19:58;27.80;;;5.82;;
55455;SDS011;63021;52.836;6.376;2023-01-26T10:22:41;30.35;;;6.38;;
55455;SDS011;63021;52.836;6.376;2023-01-26T10:25:19;29.92;;;6.03;;
55455;SDS011;63021;52.836;6.376;2023-01-26T10:27:53;35.33;;;6.80;;
55455;SDS011;63021;52.836;6.376;2023-01-26T10:30:19;39.10;;;6.90;;
55455;SDS011;63021;52.836;6.376;2023-01-26T10:32:46;40.10;;;8.45;;
55455;SDS011;63021;52.836;6.376;2023-01-26T10:35:23;34.60;;;7.20;;
55455;SDS011;63021;52.836;6.376;2023-01-26T10:37:50;41.67;;;6.28;;
55455;SDS011;63021;52.836;6.376;2023-01-26T10:40:20;21.98;;;5.60;;
55455;SDS011;63021;52.836;6.376;2023-01-26T10:42:55;28.00;;;5.45;;
55455;SDS011;63021;52.836;6.376;2023-01-26T10:45:29;42.05;;;6.20;;
55455;SDS011;63021;52.836;6.376;2023-01-26T10:50:40;25.77;;;4.07;;
55455;SDS011;63021;52.836;6.376;2023-01-26T10:53:12;31.35;;;4.55;;
55455;SDS011;63021;52.836;6.376;2023-01-26T10:55:40;30.58;;;5.35;;
55455;SDS011;63021;52.836;6.376;2023-01-26T10:58:28;27.42;;;3.75;;
55455;SDS011;63021;52.836;6.376;2023-01-26T11:01:12;26.25;;;4.00;;
55455;SDS011;63021;52.836;6.376;2023-01-26T11:04:03;24.30;;;4.78;;
55455;SDS011;63021;52.836;6.376;2023-01-26T11:06:30;30.85;;;6.55;;
55455;SDS011;63021;52.836;6.376;2023-01-26T11:11:39;36.53;;;6.00;;
55455;SDS011;63021;52.836;6.376;2023-01-26T11:16:41;23.10;;;3.42;;
55455;SDS011;63021;52.836;6.376;2023-01-26T11:19:12;20.55;;;4.80;;
55455;SDS011;63021;52.836;6.376;2023-01-26T11:21:52;40.33;;;5.68;;
55455;SDS011;63021;52.836;6.376;2023-01-26T11:27:16;26.60;;;3.70;;
55455;SDS011;63021;52.836;6.376;2023-01-26T11:32:49;21.13;;;3.55;;
55455;SDS011;63021;52.836;6.376;2023-01-26T11:38:26;27.25;;;3.97;;
55455;SDS011;63021;52.836;6.376;2023-01-26T12:00:46;22.50;;;3.40;;
55455;SDS011;63021;52.836;6.376;2023-01-26T12:03:24;20.88;;;2.83;;
55455;SDS011;63021;52.836;6.376;2023-01-26T12:06:17;25.45;;;5.55;;
55455;SDS011;63021;52.836;6.376;2023-01-26T12:16:43;18.15;;;3.63;;
55455;SDS011;63021;52.836;6.376;2023-01-26T12:21:49;18.42;;;3.90;;
55455;SDS011;63021;52.836;6.376;2023-01-26T12:24:21;17.23;;;3.72;;
55455;SDS011;63021;52.836;6.376;2023-01-26T12:27:13;13.45;;;3.80;;
55455;SDS011;63021;52.836;6.376;2023-01-26T12:30:07;25.25;;;3.15;;
55455;SDS011;63021;52.836;6.376;2023-01-26T12:32:46;12.65;;;2.40;;
55455;SDS011;63021;52.836;6.376;2023-01-26T12:35:12;24.67;;;3.75;;
55455;SDS011;63021;52.836;6.376;2023-01-26T12:40:24;26.92;;;3.70;;
55455;SDS011;63021;52.836;6.376;2023-01-26T12:43:35;10.77;;;3.05;;
55455;SDS011;63021;52.836;6.376;2023-01-26T12:46:08;8.95;;;2.17;;
55455;SDS011;63021;52.836;6.376;2023-01-26T12:49:19;11.95;;;2.42;;
55455;SDS011;63021;52.836;6.376;2023-01-26T12:51:34;10.45;;;4.97;;
55455;SDS011;63021;52.836;6.376;2023-01-26T12:54:13;10.40;;;2.35;;
55455;SDS011;63021;52.836;6.376;2023-01-26T12:56:46;10.20;;;2.65;;
55455;SDS011;63021;52.836;6.376;2023-01-26T12:59:27;14.43;;;2.63;;
55455;SDS011;63021;52.836;6.376;2023-01-26T13:04:41;11.52;;;1.90;;
55455;SDS011;63021;52.836;6.376;2023-01-26T13:15:12;16.58;;;3.03;;
55455;SDS011;63021;52.836;6.376;2023-01-26T13:17:40;12.02;;;2.70;;
55455;SDS011;63021;52.836;6.376;2023-01-26T13:20:23;9.10;;;2.03;;
55455;SDS011;63021;52.836;6.376;2023-01-26T13:23:33;18.05;;;2.58;;
55455;SDS011;63021;52.836;6.376;2023-01-26T13:26:12;9.35;;;2.50;;
55455;SDS011;63021;52.836;6.376;2023-01-26T13:28:40;11.38;;;2.22;;
55455;SDS011;63021;52.836;6.376;2023-01-26T13:31:06;9.48;;;1.83;;
55455;SDS011;63021;52.836;6.376;2023-01-26T13:33:34;10.88;;;2.58;;
55455;SDS011;63021;52.836;6.376;2023-01-26T13:36:01;11.25;;;2.58;;
55455;SDS011;63021;52.836;6.376;2023-01-26T13:38:34;8.35;;;2.42;;
55455;SDS011;63021;52.836;6.376;2023-01-26T13:41:08;8.52;;;2.00;;
55455;SDS011;63021;52.836;6.376;2023-01-26T13:51:03;7.32;;;1.35;;
55455;SDS011;63021;52.836;6.376;2023-01-26T13:53:37;5.65;;;2.17;;
55455;SDS011;63021;52.836;6.376;2023-01-26T13:56:24;6.05;;;1.50;;
55455;SDS011;63021;52.836;6.376;2023-01-26T13:58:53;12.43;;;2.25;;
55455;SDS011;63021;52.836;6.376;2023-01-26T14:01:28;6.93;;;1.77;;
55455;SDS011;63021;52.836;6.376;2023-01-26T14:04:06;11.70;;;1.55;;
55455;SDS011;63021;52.836;6.376;2023-01-26T14:06:36;10.00;;;2.35;;
55455;SDS011;63021;52.836;6.376;2023-01-26T14:09:02;6.35;;;2.30;;
55455;SDS011;63021;52.836;6.376;2023-01-26T14:11:29;7.72;;;1.83;;
55455;SDS011;63021;52.836;6.376;2023-01-26T14:13:57;12.18;;;1.40;;
55455;SDS011;63021;52.836;6.376;2023-01-26T14:16:30;11.18;;;2.78;;
55455;SDS011;63021;52.836;6.376;2023-01-26T14:19:12;10.10;;;1.63;;
55455;SDS011;63021;52.836;6.376;2023-01-26T14:21:50;5.18;;;1.20;;
55455;SDS011;63021;52.836;6.376;2023-01-26T14:24:33;9.30;;;1.35;;
55455;SDS011;63021;52.836;6.376;2023-01-26T14:27:03;3.78;;;1.13;;
55455;SDS011;63021;52.836;6.376;2023-01-26T14:29:35;10.07;;;1.90;;
55455;SDS011;63021;52.836;6.376;2023-01-26T14:32:02;8.55;;;2.38;;
55455;SDS011;63021;52.836;6.376;2023-01-26T14:34:29;10.68;;;2.53;;
55455;SDS011;63021;52.836;6.376;2023-01-26T14:37:05;12.90;;;2.17;;
55455;SDS011;63021;52.836;6.376;2023-01-26T14:39:35;9.93;;;2.08;;
55455;SDS011;63021;52.836;6.376;2023-01-26T14:42:01;9.70;;;1.50;;
55455;SDS011;63021;52.836;6.376;2023-01-26T14:44:27;7.03;;;1.90;;
55455;SDS011;63021;52.836;6.376;2023-01-26T14:47:03;9.63;;;1.40;;
55455;SDS011;63021;52.836;6.376;2023-01-26T14:54:54;16.00;;;1.80;;
55455;SDS011;63021;52.836;6.376;2023-01-26T14:57:25;8.57;;;1.30;;
55455;SDS011;63021;52.836;6.376;2023-01-26T14:59:53;4.47;;;1.83;;
55455;SDS011;63021;52.836;6.376;2023-01-26T15:02:24;16.35;;;2.47;;
55455;SDS011;63021;52.836;6.376;2023-01-26T15:05:03;9.30;;;1.65;;
55455;SDS011;63021;52.836;6.376;2023-01-26T15:10:24;13.40;;;3.60;;
55455;SDS011;63021;52.836;6.376;2023-01-26T15:12:55;11.32;;;2.47;;
55455;SDS011;63021;52.836;6.376;2023-01-26T15:15:27;7.10;;;2.47;;
55455;SDS011;63021;52.836;6.376;2023-01-26T15:20:38;11.93;;;2.53;;
55455;SDS011;63021;52.836;6.376;2023-01-26T15:23:22;22.95;;;3.95;;
55455;SDS011;63021;52.836;6.376;2023-01-26T15:25:50;8.13;;;1.67;;
55455;SDS011;63021;52.836;6.376;2023-01-26T15:28:17;8.02;;;2.08;;
55455;SDS011;63021;52.836;6.376;2023-01-26T15:30:48;9.82;;;1.90;;
55455;SDS011;63021;52.836;6.376;2023-01-26T15:36:30;13.90;;;2.75;;
55455;SDS011;63021;52.836;6.376;2023-01-26T15:38:59;14.07;;;2.33;;
55455;SDS011;63021;52.836;6.376;2023-01-26T15:41:26;17.92;;;2.58;;
55455;SDS011;63021;52.836;6.376;2023-01-26T15:43:52;13.30;;;2.92;;
55455;SDS011;63021;52.836;6.376;2023-01-26T15:46:17;11.02;;;2.65;;
55455;SDS011;63021;52.836;6.376;2023-01-26T15:48:42;16.23;;;3.10;;
55455;SDS011;63021;52.836;6.376;2023-01-26T15:51:11;17.85;;;3.03;;
55455;SDS011;63021;52.836;6.376;2023-01-26T15:53:38;12.63;;;2.22;;
55455;SDS011;63021;52.836;6.376;2023-01-26T15:56:04;13.02;;;4.40;;
55455;SDS011;63021;52.836;6.376;2023-01-26T15:58:30;13.77;;;1.98;;
55455;SDS011;63021;52.836;6.376;2023-01-26T16:00:58;12.70;;;2.15;;
55455;SDS011;63021;52.836;6.376;2023-01-26T16:03:24;16.75;;;3.17;;
55455;SDS011;63021;52.836;6.376;2023-01-26T16:05:50;21.98;;;2.35;;
55455;SDS011;63021;52.836;6.376;2023-01-26T16:08:15;19.15;;;3.15;;
55455;SDS011;63021;52.836;6.376;2023-01-26T16:10:41;14.50;;;3.08;;
55455;SDS011;63021;52.836;6.376;2023-01-26T16:13:07;18.20;;;2.13;;
55455;SDS011;63021;52.836;6.376;2023-01-26T16:15:39;11.43;;;2.38;;
55455;SDS011;63021;52.836;6.376;2023-01-26T16:18:06;16.17;;;2.72;;
55455;SDS011;63021;52.836;6.376;2023-01-26T16:20:35;17.85;;;3.17;;